createdAt,value
2023-04-02T00:01:02.696Z,16.75
2023-04-02T00:03:44.621Z,12.73
2023-04-02T00:06:29.938Z,16.10
2023-04-02T00:08:59.458Z,13.65
2023-04-02T00:11:29.693Z,12.63
2023-04-02T00:13:55.986Z,18.13
2023-04-02T00:16:23.587Z,17.38
2023-04-02T00:18:52.322Z,20.77
2023-04-02T00:21:26.536Z,15.20
2023-04-02T00:23:56.708Z,18.77
2023-04-02T00:26:31.266Z,17.67
2023-04-02T00:28:58.540Z,15.02
2023-04-02T00:31:25.369Z,13.60
2023-04-02T00:33:52.381Z,20.55
2023-04-02T00:36:20.277Z,14.40
2023-04-02T00:38:48.717Z,15.35
2023-04-02T00:41:18.283Z,11.98
2023-04-02T00:43:46.765Z,15.05
2023-04-02T00:46:17.626Z,16.52
2023-04-02T00:48:51.759Z,14.18
2023-04-02T00:51:17.996Z,15.73
2023-04-02T00:53:45.969Z,11.18
2023-04-02T00:56:19.072Z,13.20
2023-04-02T00:58:45.976Z,11.88
2023-04-02T01:01:21.540Z,13.73
2023-04-02T01:03:58.600Z,17.75
2023-04-02T01:06:37.109Z,14.73
2023-04-02T01:09:08.113Z,14.35
2023-04-02T01:11:52.980Z,14.85
2023-04-02T01:14:23.012Z,16.20
2023-04-02T01:16:54.016Z,16.42
2023-04-02T01:19:32.531Z,23.13
2023-04-02T01:22:18.436Z,14.90
2023-04-02T01:24:44.958Z,17.10
2023-04-02T01:27:14.113Z,21.10
2023-04-02T01:29:45.519Z,17.20
2023-04-02T01:32:13.874Z,15.23
2023-04-02T01:34:41.281Z,16.73
2023-04-02T01:37:27.656Z,13.98
2023-04-02T01:39:56.704Z,15.48
2023-04-02T01:42:33.375Z,11.15
2023-04-02T01:45:02.312Z,13.13
2023-04-02T01:47:29.633Z,16.40
2023-04-02T01:50:02.173Z,13.48
2023-04-02T01:52:36.810Z,9.50
2023-04-02T01:55:03.913Z,12.57
2023-04-02T01:57:31.110Z,14.90
2023-04-02T01:59:59.016Z,9.93
2023-04-02T02:02:25.938Z,15.70
2023-04-02T02:04:52.989Z,10.27
2023-04-02T02:07:20.589Z,12.73
2023-04-02T02:09:47.915Z,12.65
2023-04-02T02:12:14.959Z,12.00
2023-04-02T02:14:52.061Z,12.02
2023-04-02T02:17:19.796Z,11.43
2023-04-02T02:19:47.924Z,12.80
2023-04-02T02:22:14.242Z,13.00
2023-04-02T02:24:41.129Z,12.07
2023-04-02T02:27:10.503Z,12.80
2023-04-02T02:29:38.263Z,14.25
2023-04-02T02:32:06.343Z,9.20
2023-04-02T02:34:38.545Z,12.15
2023-04-02T02:37:24.736Z,10.02
2023-04-02T02:39:56.312Z,18.90
2023-04-02T02:42:28.045Z,11.80
2023-04-02T02:44:55.100Z,12.13
2023-04-02T02:47:35.050Z,11.02
2023-04-02T02:50:07.321Z,14.43
2023-04-02T02:52:38.116Z,12.75
2023-04-02T02:55:10.754Z,10.80
2023-04-02T02:57:39.785Z,15.30
2023-04-02T03:00:09.925Z,18.25
2023-04-02T03:02:38.485Z,20.92
2023-04-02T03:05:05.675Z,19.35
2023-04-02T03:07:32.586Z,11.80
2023-04-02T03:09:58.960Z,15.77
2023-04-02T03:12:48.537Z,15.38
2023-04-02T03:15:34.029Z,16.00
2023-04-02T03:18:07.812Z,13.70
2023-04-02T03:21:00.714Z,15.68
2023-04-02T03:23:29.246Z,17.48
2023-04-02T03:25:59.160Z,12.25
2023-04-02T03:28:27.923Z,13.60
2023-04-02T03:31:00.418Z,16.10
2023-04-02T03:33:39.464Z,17.92
2023-04-02T03:36:06.281Z,16.40
2023-04-02T03:38:34.909Z,13.50
2023-04-02T03:41:10.056Z,12.05
2023-04-02T03:43:41.202Z,16.58
2023-04-02T03:46:22.747Z,13.93
2023-04-02T03:48:51.005Z,17.00
2023-04-02T03:51:17.329Z,11.20
2023-04-02T03:53:44.477Z,20.58
2023-04-02T03:56:17.421Z,12.15
2023-04-02T03:58:46.942Z,13.25
2023-04-02T04:01:23.050Z,16.33
2023-04-02T04:03:54.069Z,14.43
2023-04-02T04:06:21.335Z,10.65
2023-04-02T04:08:54.634Z,14.50
2023-04-02T04:11:31.234Z,10.73
2023-04-02T04:14:03.665Z,14.02
2023-04-02T04:16:32.518Z,15.68
2023-04-02T04:19:04.917Z,9.95
2023-04-02T04:21:37.033Z,10.38
2023-04-02T04:24:07.823Z,11.55
2023-04-02T04:26:53.476Z,13.05
2023-04-02T04:29:40.785Z,10.63
2023-04-02T04:32:14.836Z,10.80
2023-04-02T04:34:46.754Z,15.40
2023-04-02T04:37:21.458Z,8.73
2023-04-02T04:39:50.535Z,9.82
2023-04-02T04:42:22.717Z,11.18
2023-04-02T04:44:57.152Z,9.07
2023-04-02T04:47:30.863Z,8.80
2023-04-02T04:50:01.317Z,7.90
2023-04-02T04:52:33.835Z,10.23
2023-04-02T04:55:00.847Z,11.05
2023-04-02T04:57:30.438Z,12.80
2023-04-02T05:00:19.708Z,6.78
2023-04-02T05:02:52.771Z,9.20
2023-04-02T05:05:29.142Z,11.93
2023-04-02T05:08:00.249Z,8.05
2023-04-02T05:10:45.390Z,10.45
2023-04-02T05:13:16.145Z,8.52
2023-04-02T05:15:50.588Z,7.22
2023-04-02T05:18:26.142Z,7.43
2023-04-02T05:21:18.786Z,10.95
2023-04-02T05:23:54.811Z,5.97
2023-04-02T05:26:32.393Z,8.63
2023-04-02T05:29:06.497Z,7.50
2023-04-02T05:31:40.082Z,6.47
2023-04-02T05:34:06.573Z,6.18
2023-04-02T05:36:33.033Z,10.50
2023-04-02T05:38:59.686Z,7.60
2023-04-02T05:41:32.301Z,6.65
2023-04-02T05:44:16.357Z,11.05
2023-04-02T05:46:48.670Z,3.78
2023-04-02T05:49:38.394Z,3.60
2023-04-02T05:52:06.834Z,5.53
2023-04-02T05:54:38.141Z,3.65
2023-04-02T05:57:06.591Z,7.82
2023-04-02T05:59:41.681Z,9.57
2023-04-02T06:02:27.034Z,6.65
2023-04-02T06:04:56.407Z,7.75
2023-04-02T06:07:24.409Z,6.32
2023-04-02T06:09:54.082Z,6.63
2023-04-02T06:12:29.069Z,7.85
2023-04-02T06:14:55.549Z,8.60
2023-04-02T06:17:21.941Z,4.55
2023-04-02T06:19:48.836Z,7.15
2023-04-02T06:22:38.272Z,6.88
2023-04-02T06:25:13.493Z,11.40
2023-04-02T06:27:41.794Z,7.15
2023-04-02T06:30:14.174Z,6.50
2023-04-02T06:32:40.561Z,10.60
2023-04-02T06:35:09.328Z,7.13
2023-04-02T06:37:38.148Z,12.05
2023-04-02T06:40:06.871Z,5.25
2023-04-02T06:42:33.223Z,6.32
2023-04-02T06:44:59.548Z,8.40
2023-04-02T06:47:42.491Z,5.82
2023-04-02T06:50:11.944Z,8.32
2023-04-02T06:52:52.134Z,5.72
2023-04-02T06:55:18.461Z,6.40
2023-04-02T06:57:44.833Z,6.95
2023-04-02T07:00:22.405Z,5.93
2023-04-02T07:02:49.872Z,9.55
2023-04-02T07:05:16.479Z,9.75
2023-04-02T07:07:42.795Z,7.85
2023-04-02T07:10:09.923Z,6.38
2023-04-02T07:12:36.196Z,5.38
2023-04-02T07:15:02.708Z,10.30
2023-04-02T07:17:29.313Z,6.68
2023-04-02T07:19:55.810Z,12.73
2023-04-02T07:22:22.690Z,7.55
2023-04-02T07:24:50.492Z,7.63
2023-04-02T07:27:16.852Z,6.80
2023-04-02T07:29:44.549Z,4.55
2023-04-02T07:32:11.687Z,8.43
2023-04-02T07:34:38.322Z,5.53
2023-04-02T07:37:05.040Z,5.65
2023-04-02T07:39:31.677Z,4.63
2023-04-02T07:41:59.443Z,4.93
2023-04-02T07:44:25.740Z,12.57
2023-04-02T07:46:52.110Z,8.30
2023-04-02T07:49:18.514Z,6.03
2023-04-02T07:51:44.862Z,10.20
2023-04-02T07:54:11.369Z,6.75
2023-04-02T07:56:38.096Z,7.10
2023-04-02T07:59:04.821Z,8.02
2023-04-02T08:01:35.558Z,8.30
2023-04-02T08:04:02.886Z,13.05
2023-04-02T08:06:29.219Z,8.13
2023-04-02T08:08:55.971Z,11.80
2023-04-02T08:11:22.241Z,9.13
2023-04-02T08:13:48.581Z,5.20
2023-04-02T08:16:14.946Z,8.02
2023-04-02T08:18:41.474Z,4.90
2023-04-02T08:21:09.092Z,6.65
2023-04-02T08:23:36.300Z,6.65
2023-04-02T08:26:03.115Z,8.57
2023-04-02T08:28:29.730Z,7.38
2023-04-02T08:30:56.386Z,8.27
2023-04-02T08:33:22.786Z,10.00
2023-04-02T08:35:49.519Z,7.07
2023-04-02T08:38:16.911Z,12.82
2023-04-02T08:40:44.937Z,9.05
2023-04-02T08:43:30.968Z,8.13
2023-04-02T08:46:11.279Z,7.18
2023-04-02T08:48:42.096Z,10.32
2023-04-02T08:51:15.010Z,5.03
2023-04-02T08:53:42.181Z,10.63
2023-04-02T08:56:18.965Z,8.43
2023-04-02T08:58:54.379Z,7.85
2023-04-02T09:01:39.409Z,8.63
2023-04-02T09:04:07.114Z,7.20
2023-04-02T09:06:33.569Z,6.95
2023-04-02T09:09:00.361Z,4.38
2023-04-02T09:11:32.941Z,7.32
2023-04-02T09:14:01.771Z,8.02
2023-04-02T09:16:37.995Z,8.48
2023-04-02T09:19:12.516Z,4.68
2023-04-02T09:21:41.924Z,6.43
2023-04-02T09:24:12.628Z,5.57
2023-04-02T09:29:08.414Z,5.72
2023-04-02T09:31:56.464Z,8.13
2023-04-02T09:34:27.140Z,6.13
2023-04-02T09:36:55.445Z,8.80
2023-04-02T09:39:28.664Z,9.55
2023-04-02T09:42:04.899Z,2.53
2023-04-02T09:44:33.732Z,3.42
2023-04-02T09:47:22.587Z,9.75
2023-04-02T09:49:48.921Z,4.45
2023-04-02T09:52:20.589Z,4.50
2023-04-02T09:55:04.528Z,8.73
2023-04-02T09:57:32.852Z,10.35
2023-04-02T10:00:25.466Z,3.97
2023-04-02T10:03:05.031Z,1.77
2023-04-02T10:05:40.528Z,6.45
2023-04-02T10:08:15.952Z,4.38
2023-04-02T10:10:44.666Z,8.65
2023-04-02T10:13:19.459Z,6.43
2023-04-02T10:15:57.252Z,8.45
2023-04-02T10:18:33.168Z,2.75
2023-04-02T10:21:01.424Z,6.22
2023-04-02T10:23:29.279Z,3.38
2023-04-02T10:26:14.777Z,3.53
2023-04-02T10:28:59.242Z,4.18
2023-04-02T10:31:41.207Z,5.65
2023-04-02T10:34:12.648Z,4.10
2023-04-02T10:36:39.000Z,6.90
2023-04-02T10:39:11.971Z,5.28
2023-04-02T10:41:53.086Z,5.03
2023-04-02T10:44:37.362Z,5.47
2023-04-02T10:47:22.455Z,8.48
2023-04-02T10:50:08.489Z,3.88
2023-04-02T10:52:38.626Z,13.20
2023-04-02T10:55:08.882Z,4.90
2023-04-02T10:57:35.396Z,4.25
2023-04-02T11:00:16.812Z,4.25
2023-04-02T11:03:06.188Z,5.00
2023-04-02T11:05:32.751Z,6.82
2023-04-02T11:08:02.070Z,4.28
2023-04-02T11:10:30.657Z,7.57
2023-04-02T11:13:03.297Z,4.78
2023-04-02T11:15:29.736Z,6.53
2023-04-02T11:17:56.369Z,7.47
2023-04-02T11:20:43.263Z,4.43
2023-04-02T11:23:13.484Z,6.38
2023-04-02T11:25:41.114Z,5.10
2023-04-02T11:28:28.026Z,4.40
2023-04-02T11:30:54.970Z,4.68
2023-04-02T11:33:44.974Z,4.28
2023-04-02T11:36:31.474Z,3.45
2023-04-02T11:39:07.304Z,5.63
2023-04-02T11:42:00.228Z,4.88
2023-04-02T11:44:26.587Z,3.47
2023-04-02T11:46:52.957Z,6.53
2023-04-02T11:49:36.435Z,4.15
2023-04-02T11:52:11.489Z,4.55
2023-04-02T11:54:38.829Z,6.78
2023-04-02T11:57:15.103Z,5.30
2023-04-02T11:59:47.271Z,5.53
2023-04-02T12:02:29.198Z,3.63
2023-04-02T12:05:07.551Z,8.23
2023-04-02T12:07:52.522Z,4.18
2023-04-02T12:10:20.948Z,5.97
2023-04-02T12:12:47.806Z,4.55
2023-04-02T12:15:27.005Z,3.65
2023-04-02T12:17:53.582Z,2.47
2023-04-02T12:20:22.603Z,2.88
2023-04-02T12:22:51.007Z,5.35
2023-04-02T12:25:23.454Z,6.40
2023-04-02T12:28:10.144Z,2.70
2023-04-02T12:30:37.547Z,3.40
2023-04-02T12:33:19.432Z,3.67
2023-04-02T12:35:46.868Z,4.40
2023-04-02T12:38:19.611Z,3.60
2023-04-02T12:40:53.455Z,3.95
2023-04-02T12:43:23.994Z,3.55
2023-04-02T12:45:58.902Z,5.15
2023-04-02T12:48:26.238Z,5.65
2023-04-02T12:50:53.011Z,4.25
2023-04-02T12:53:30.246Z,5.40
2023-04-02T12:55:56.767Z,3.25
2023-04-02T12:58:27.545Z,3.10
2023-04-02T13:01:09.316Z,3.50
2023-04-02T13:03:35.833Z,3.00
2023-04-02T13:06:02.265Z,4.53
2023-04-02T13:08:30.988Z,4.05
2023-04-02T13:10:59.574Z,2.30
2023-04-02T13:13:36.643Z,3.67
2023-04-02T13:16:05.823Z,5.18
2023-04-02T13:18:33.257Z,2.88
2023-04-02T13:21:00.320Z,5.05
2023-04-02T13:23:29.525Z,4.88
2023-04-02T13:25:59.683Z,5.07
2023-04-02T13:28:26.323Z,4.25
2023-04-02T13:30:52.616Z,2.45
2023-04-02T13:33:19.003Z,3.20
2023-04-02T13:35:45.438Z,4.10
2023-04-02T13:38:11.865Z,6.20
2023-04-02T13:40:38.784Z,4.13
2023-04-02T13:43:05.667Z,2.97
2023-04-02T13:45:37.266Z,3.63
2023-04-02T13:48:04.019Z,2.67
2023-04-02T13:50:35.166Z,4.00
2023-04-02T13:53:05.984Z,4.13
2023-04-02T13:55:37.742Z,3.05
2023-04-02T13:58:04.817Z,3.22
2023-04-02T14:00:31.409Z,3.08
2023-04-02T14:03:04.346Z,3.30
2023-04-02T14:05:36.970Z,5.45
2023-04-02T14:08:09.343Z,3.63
2023-04-02T14:10:54.320Z,7.15
2023-04-02T14:13:26.702Z,3.88
2023-04-02T14:15:56.259Z,8.38
2023-04-02T14:18:30.628Z,6.33
2023-04-02T14:21:03.653Z,3.75
2023-04-02T14:23:56.156Z,4.65
2023-04-02T14:26:39.623Z,3.50
2023-04-02T14:29:10.933Z,2.65
2023-04-02T14:31:46.951Z,3.70
2023-04-02T14:34:32.017Z,5.68
2023-04-02T14:37:04.409Z,4.88
2023-04-02T14:39:33.876Z,6.13
2023-04-02T14:42:20.800Z,1.75
2023-04-02T14:44:53.056Z,11.07
2023-04-02T14:47:23.217Z,5.88
2023-04-02T14:49:51.492Z,3.95
2023-04-02T14:52:20.574Z,4.15
2023-04-02T14:54:50.231Z,7.72
2023-04-02T14:57:21.534Z,13.40
2023-04-02T14:59:51.847Z,6.53
2023-04-02T15:02:20.965Z,2.47
2023-04-02T15:04:52.691Z,4.55
2023-04-02T15:07:21.020Z,4.85
2023-04-02T15:09:54.401Z,3.80
2023-04-02T15:12:22.765Z,1.98
2023-04-02T15:14:53.504Z,4.60
2023-04-02T15:17:20.377Z,4.55
2023-04-02T15:19:46.794Z,3.25
2023-04-02T15:22:27.192Z,6.20
2023-04-02T15:24:53.471Z,4.80
2023-04-02T15:27:26.956Z,4.30
2023-04-02T15:29:59.266Z,6.00
2023-04-02T15:32:31.810Z,6.10
2023-04-02T15:35:10.968Z,4.57
2023-04-02T15:37:52.666Z,6.03
2023-04-02T15:40:18.995Z,3.10
2023-04-02T15:42:55.126Z,6.20
2023-04-02T15:45:25.792Z,4.28
2023-04-02T15:47:57.891Z,7.35
2023-04-02T15:50:42.883Z,3.28
2023-04-02T15:53:18.437Z,3.80
2023-04-02T15:55:54.347Z,4.18
2023-04-02T15:58:46.324Z,2.55
2023-04-02T16:01:31.480Z,6.07
2023-04-02T16:04:11.274Z,5.13
2023-04-02T16:06:43.762Z,2.97
2023-04-02T16:09:13.266Z,6.57
2023-04-02T16:11:40.259Z,4.60
2023-04-02T16:14:19.906Z,4.32
2023-04-02T16:16:47.881Z,3.17
2023-04-02T16:19:53.008Z,4.53
2023-04-02T16:22:29.470Z,6.63
2023-04-02T16:25:19.527Z,5.10
2023-04-02T16:27:58.555Z,9.45
2023-04-02T16:30:44.384Z,11.27
2023-04-02T16:33:27.870Z,5.15
2023-04-02T16:36:01.437Z,6.72
2023-04-02T16:38:30.777Z,3.92
2023-04-02T16:41:08.687Z,7.45
2023-04-02T16:43:44.808Z,4.07
2023-04-02T16:46:25.151Z,4.43
2023-04-02T16:49:21.413Z,3.28
2023-04-02T16:52:04.844Z,5.70
2023-04-02T16:54:33.703Z,6.35
2023-04-02T16:57:00.075Z,17.23
2023-04-02T16:59:39.890Z,2.03
2023-04-02T17:02:12.178Z,6.90
2023-04-02T17:04:50.423Z,3.63
2023-04-02T17:07:19.683Z,5.47
2023-04-02T17:09:51.494Z,6.95
2023-04-02T17:12:35.367Z,11.90
2023-04-02T17:15:11.490Z,2.53
2023-04-02T17:17:44.730Z,3.58
2023-04-02T17:20:17.028Z,3.35
2023-04-02T17:22:43.370Z,4.25
2023-04-02T17:25:15.490Z,6.30
2023-04-02T17:27:43.985Z,5.63
2023-04-02T17:30:18.253Z,11.18
2023-04-02T17:32:44.994Z,3.25
2023-04-02T17:35:37.689Z,5.05
2023-04-02T17:38:09.947Z,4.00
2023-04-02T17:40:36.701Z,4.88
2023-04-02T17:43:03.246Z,2.22
2023-04-02T17:45:32.673Z,4.55
2023-04-02T17:48:05.731Z,1.85
2023-04-02T17:50:51.961Z,5.68
2023-04-02T17:53:33.263Z,4.45
2023-04-02T17:56:28.788Z,4.70
2023-04-02T17:58:57.870Z,5.28
2023-04-02T18:01:34.872Z,7.22
2023-04-02T18:04:10.221Z,2.90
2023-04-02T18:06:38.099Z,2.72
2023-04-02T18:09:10.658Z,3.40
2023-04-02T18:11:42.647Z,1.73
2023-04-02T18:14:25.526Z,3.15
2023-04-02T18:17:05.097Z,2.63
2023-04-02T18:19:34.713Z,4.82
2023-04-02T18:22:31.050Z,5.33
2023-04-02T18:25:17.659Z,1.95
2023-04-02T18:27:46.961Z,6.72
2023-04-02T18:30:19.515Z,1.67
2023-04-02T18:32:45.961Z,5.03
2023-04-02T18:35:18.534Z,4.90
2023-04-02T18:37:48.089Z,6.68
2023-04-02T18:40:22.023Z,5.95
2023-04-02T18:42:54.481Z,3.22
2023-04-02T18:45:20.867Z,5.28
2023-04-02T18:48:05.442Z,3.40
2023-04-02T18:50:33.665Z,4.07
2023-04-02T18:53:13.432Z,2.70
2023-04-02T18:55:56.934Z,4.50
2023-04-02T18:58:42.236Z,2.85
2023-04-02T19:01:09.825Z,6.35
2023-04-02T19:03:48.790Z,2.60
2023-04-02T19:06:23.687Z,6.15
2023-04-02T19:09:00.971Z,4.28
2023-04-02T19:11:31.338Z,3.90
2023-04-02T19:14:19.943Z,3.00
2023-04-02T19:16:49.168Z,4.55
2023-04-02T19:19:22.876Z,3.05
2023-04-02T19:22:08.580Z,4.82
2023-04-02T19:24:55.764Z,2.83
2023-04-02T19:27:25.090Z,3.92
2023-04-02T19:30:05.244Z,5.10
2023-04-02T19:32:44.250Z,11.82
2023-04-02T19:35:18.925Z,4.82
2023-04-02T19:37:51.505Z,5.80
2023-04-02T19:40:17.872Z,7.80
2023-04-02T19:42:46.226Z,4.20
2023-04-02T19:45:18.712Z,5.95
2023-04-02T19:47:45.010Z,3.95
2023-04-02T19:50:11.569Z,3.72
2023-04-02T19:52:38.158Z,5.13
2023-04-02T19:55:04.559Z,4.55
2023-04-02T19:57:31.058Z,4.47
2023-04-02T19:59:57.405Z,5.03
2023-04-02T20:02:23.796Z,4.25
2023-04-02T20:04:50.381Z,5.03
2023-04-02T20:07:16.723Z,5.03
2023-04-02T20:09:43.051Z,3.00
2023-04-02T20:12:09.637Z,3.47
2023-04-02T20:14:36.038Z,6.03
2023-04-02T20:17:02.376Z,1.77
2023-04-02T20:19:28.992Z,5.88
2023-04-02T20:21:56.261Z,7.38
2023-04-02T20:24:22.518Z,6.85
2023-04-02T20:26:48.747Z,3.20
2023-04-02T20:29:15.033Z,3.58
2023-04-02T20:31:41.528Z,3.35
2023-04-02T20:34:09.471Z,5.50
2023-04-02T20:36:36.490Z,5.43
2023-04-02T20:39:03.612Z,7.70
2023-04-02T20:41:30.068Z,2.55
2023-04-02T20:43:56.752Z,4.45
2023-04-02T20:46:23.202Z,4.93
2023-04-02T20:48:49.585Z,5.78
2023-04-02T20:51:16.009Z,3.28
2023-04-02T20:53:42.504Z,3.67
2023-04-02T20:56:10.935Z,2.95
2023-04-02T20:58:37.766Z,2.47
2023-04-02T21:01:11.917Z,5.13
2023-04-02T21:03:39.785Z,3.13
2023-04-02T21:06:07.774Z,2.58
2023-04-02T21:08:34.142Z,1.75
2023-04-02T21:11:01.234Z,3.53
2023-04-02T21:13:29.013Z,3.10
2023-04-02T21:15:55.538Z,4.28
2023-04-02T21:18:21.844Z,1.75
2023-04-02T21:21:01.541Z,2.78
2023-04-02T21:23:28.177Z,2.10
2023-04-02T21:25:58.718Z,2.95
2023-04-02T21:28:25.349Z,3.25
2023-04-02T21:30:51.707Z,4.68
2023-04-02T21:33:18.047Z,1.40
2023-04-02T21:35:44.530Z,4.05
2023-04-02T21:38:10.882Z,1.77
2023-04-02T21:40:37.176Z,2.30
2023-04-02T21:43:03.556Z,2.15
2023-04-02T21:45:29.901Z,2.58
2023-04-02T21:47:56.277Z,5.00
2023-04-02T21:50:22.724Z,3.40
2023-04-02T21:52:48.967Z,2.20
2023-04-02T21:55:15.464Z,1.10
2023-04-02T21:57:41.803Z,1.98
2023-04-02T22:00:12.360Z,2.75
2023-04-02T22:02:38.815Z,3.78
2023-04-02T22:05:05.596Z,3.50
2023-04-02T22:07:31.937Z,3.80
2023-04-02T22:09:58.270Z,1.98
2023-04-02T22:12:24.579Z,4.68
2023-04-02T22:14:51.721Z,3.38
2023-04-02T22:17:18.026Z,2.90
2023-04-02T22:19:44.308Z,3.22
2023-04-02T22:22:10.641Z,5.38
2023-04-02T22:24:38.289Z,4.35
2023-04-02T22:27:04.563Z,2.58
2023-04-02T22:29:30.979Z,3.35
2023-04-02T22:31:57.334Z,6.30
2023-04-02T22:34:23.797Z,2.85
2023-04-02T22:36:50.209Z,6.22
2023-04-02T22:39:17.073Z,3.22
2023-04-02T22:41:43.665Z,4.15
2023-04-02T22:44:13.177Z,4.03
2023-04-02T22:46:39.538Z,4.65
2023-04-02T22:49:06.151Z,2.83
2023-04-02T22:51:32.576Z,4.60
2023-04-02T22:53:58.994Z,4.10
2023-04-02T22:56:27.572Z,7.57
2023-04-02T22:58:53.894Z,2.42
2023-04-02T23:01:22.333Z,3.17
2023-04-02T23:03:49.209Z,4.72
2023-04-02T23:06:16.662Z,4.50
2023-04-02T23:08:43.585Z,2.38
2023-04-02T23:11:11.787Z,4.68
2023-04-02T23:13:39.223Z,1.42
2023-04-02T23:16:06.706Z,4.13
2023-04-02T23:18:36.322Z,4.18
2023-04-02T23:21:02.849Z,4.07
2023-04-02T23:23:29.696Z,1.35
2023-04-02T23:26:09.454Z,2.08
2023-04-02T23:28:36.607Z,4.78
2023-04-02T23:31:04.133Z,3.40
2023-04-02T23:33:30.905Z,6.93
2023-04-02T23:35:57.516Z,2.17
2023-04-02T23:38:24.094Z,4.15
2023-04-02T23:40:50.439Z,3.38
2023-04-02T23:43:16.709Z,4.38
2023-04-02T23:45:46.780Z,4.22
2023-04-02T23:48:13.091Z,2.17
2023-04-02T23:50:39.389Z,4.40
2023-04-02T23:53:05.886Z,2.53
2023-04-02T23:55:32.530Z,6.07
2023-04-02T23:57:59.007Z,5.10
